createdAt,value
2018-07-16T00:01:55.403Z,23.44
2018-07-16T00:04:27.027Z,23.53
2018-07-16T00:06:57.779Z,23.49
2018-07-16T00:09:29.699Z,23.54
2018-07-16T00:12:01.552Z,23.56
2018-07-16T00:14:32.681Z,23.61
2018-07-16T00:17:03.518Z,23.59
2018-07-16T00:19:36.116Z,23.54
2018-07-16T00:22:07.137Z,23.47
2018-07-16T00:24:38.187Z,23.48
2018-07-16T00:27:10.246Z,23.34
2018-07-16T00:29:41.328Z,23.31
2018-07-16T00:32:14.300Z,23.38
2018-07-16T00:34:47.385Z,23.39
2018-07-16T00:37:18.416Z,23.43
2018-07-16T00:39:50.209Z,23.37
2018-07-16T00:42:20.996Z,23.35
2018-07-16T00:44:52.115Z,23.24
2018-07-16T00:47:22.981Z,23.06
2018-07-16T00:49:55.529Z,22.97
2018-07-16T00:52:26.709Z,22.94
2018-07-16T00:54:58.851Z,22.86
2018-07-16T00:57:31.093Z,22.74
2018-07-16T01:00:02.559Z,22.66
2018-07-16T01:02:33.644Z,22.64
2018-07-16T01:05:05.580Z,22.68
2018-07-16T01:07:36.650Z,22.66
2018-07-16T01:10:07.617Z,22.66
2018-07-16T01:12:38.826Z,22.70
2018-07-16T01:15:10.408Z,22.67
2018-07-16T01:17:42.590Z,22.54
2018-07-16T01:20:14.381Z,22.54
2018-07-16T01:22:45.792Z,22.56
2018-07-16T01:25:16.731Z,22.48
2018-07-16T01:27:47.768Z,22.45
2018-07-16T01:30:18.633Z,22.41
2018-07-16T01:32:51.681Z,22.38
2018-07-16T01:35:23.584Z,22.37
2018-07-16T01:37:55.917Z,22.29
2018-07-16T01:40:28.914Z,22.30
2018-07-16T01:43:00.042Z,22.31
2018-07-16T01:45:32.237Z,22.32
2018-07-16T01:48:03.776Z,22.30
2018-07-16T01:50:35.677Z,22.17
2018-07-16T01:53:06.721Z,22.05
2018-07-16T01:55:37.650Z,21.69
2018-07-16T01:58:08.955Z,21.60
2018-07-16T02:00:50.451Z,21.51
2018-07-16T02:03:22.251Z,21.58
2018-07-16T02:05:54.169Z,21.67
2018-07-16T02:08:25.951Z,21.79
2018-07-16T02:10:58.017Z,21.76
2018-07-16T02:13:29.024Z,21.70
2018-07-16T02:16:00.111Z,21.71
2018-07-16T02:18:31.078Z,21.67
2018-07-16T02:21:02.885Z,21.50
2018-07-16T02:23:34.854Z,21.45
2018-07-16T02:26:07.689Z,21.25
2018-07-16T02:28:38.781Z,21.31
2018-07-16T02:31:09.850Z,21.28
2018-07-16T02:33:40.834Z,21.20
2018-07-16T02:36:13.419Z,21.12
2018-07-16T02:38:44.893Z,21.13
2018-07-16T02:41:16.936Z,21.15
2018-07-16T02:43:48.669Z,21.17
2018-07-16T02:46:20.359Z,21.17
2018-07-16T02:48:51.496Z,21.19
2018-07-16T02:51:23.302Z,21.13
2018-07-16T02:53:54.584Z,21.14
2018-07-16T02:56:25.717Z,21.24
2018-07-16T02:58:58.210Z,21.21
2018-07-16T03:01:29.247Z,21.20
2018-07-16T03:04:00.381Z,20.95
2018-07-16T03:06:31.334Z,21.21
2018-07-16T03:09:02.360Z,21.31
2018-07-16T03:11:33.353Z,21.50
2018-07-16T03:14:04.930Z,21.76
2018-07-16T03:16:35.863Z,21.83
2018-07-16T03:19:06.933Z,21.70
2018-07-16T03:21:38.808Z,21.67
2018-07-16T03:24:09.961Z,21.60
2018-07-16T03:26:40.922Z,21.59
2018-07-16T03:29:12.212Z,21.56
2018-07-16T03:31:43.998Z,21.64
2018-07-16T03:34:15.097Z,21.78
2018-07-16T03:36:46.872Z,21.88
2018-07-16T03:39:17.822Z,22.36
2018-07-16T03:41:48.692Z,23.05
2018-07-16T03:44:21.001Z,23.98
2018-07-16T03:46:52.272Z,24.51
2018-07-16T03:49:23.245Z,25.50
2018-07-16T03:51:58.434Z,26.17
2018-07-16T03:54:29.503Z,26.16
2018-07-16T03:57:00.687Z,25.97
2018-07-16T03:59:31.628Z,27.25
2018-07-16T04:02:03.483Z,27.60
2018-07-16T04:04:35.342Z,28.05
2018-07-16T04:07:07.374Z,28.36
2018-07-16T04:09:38.262Z,27.80
2018-07-16T04:12:10.312Z,28.51
2018-07-16T04:14:41.096Z,28.78
2018-07-16T04:17:12.576Z,28.63
2018-07-16T04:19:44.432Z,29.28
2018-07-16T04:22:16.512Z,28.98
2018-07-16T04:24:47.213Z,28.44
2018-07-16T04:27:18.531Z,29.26
2018-07-16T04:29:49.361Z,29.80
2018-07-16T04:32:20.178Z,28.87
2018-07-16T04:34:51.089Z,28.50
2018-07-16T04:37:23.471Z,29.44
2018-07-16T04:39:54.477Z,30.65
2018-07-16T04:42:25.452Z,30.96
2018-07-16T04:44:56.990Z,32.63
2018-07-16T04:47:28.800Z,34.34
2018-07-16T04:49:59.656Z,34.57
2018-07-16T04:52:31.344Z,36.32
2018-07-16T04:55:02.098Z,35.29
2018-07-16T04:57:34.943Z,33.93
2018-07-16T05:00:38.098Z,33.87
2018-07-16T05:03:11.068Z,34.77
2018-07-16T05:05:43.040Z,35.88
2018-07-16T05:08:15.273Z,36.61
2018-07-16T05:10:47.867Z,35.52
2018-07-16T05:13:19.019Z,35.59
2018-07-16T05:15:50.358Z,36.67
2018-07-16T05:18:21.460Z,36.89
2018-07-16T05:20:53.302Z,38.23
2018-07-16T05:23:25.837Z,38.04
2018-07-16T05:25:58.083Z,39.77
2018-07-16T05:28:29.952Z,39.65
2018-07-16T05:31:01.840Z,38.46
2018-07-16T05:33:32.772Z,39.18
2018-07-16T05:36:04.225Z,40.62
2018-07-16T05:38:35.686Z,41.71
2018-07-16T05:41:08.271Z,41.97
2018-07-16T05:43:39.818Z,40.96
2018-07-16T05:46:11.741Z,41.40
2018-07-16T05:48:42.949Z,42.40
2018-07-16T05:51:13.993Z,42.83
2018-07-16T05:53:44.990Z,42.86
2018-07-16T05:56:17.776Z,43.58
2018-07-16T05:58:50.118Z,42.21
2018-07-16T06:01:21.895Z,42.33
2018-07-16T06:03:53.085Z,42.99
2018-07-16T06:06:24.754Z,43.10
2018-07-16T06:08:56.095Z,43.55
2018-07-16T06:11:29.279Z,43.38
2018-07-16T06:14:00.116Z,43.64
2018-07-16T06:16:33.319Z,43.38
2018-07-16T06:19:04.860Z,43.19
2018-07-16T06:21:37.009Z,43.11
2018-07-16T06:24:08.872Z,43.82
2018-07-16T06:26:40.550Z,44.69
2018-07-16T06:29:11.517Z,44.61
2018-07-16T06:31:42.813Z,42.12
2018-07-16T06:34:13.731Z,41.04
2018-07-16T06:36:44.705Z,42.94
2018-07-16T06:39:15.621Z,41.78
2018-07-16T06:41:47.637Z,42.58
2018-07-16T06:44:18.654Z,40.03
2018-07-16T06:46:50.420Z,41.18
2018-07-16T06:49:21.406Z,41.46
2018-07-16T06:51:53.348Z,41.82
2018-07-16T06:54:24.389Z,42.80
2018-07-16T06:56:55.583Z,42.68
2018-07-16T06:59:26.921Z,43.28
2018-07-16T07:02:00.257Z,42.80
2018-07-16T07:04:31.597Z,43.15
2018-07-16T07:07:02.624Z,43.88
2018-07-16T07:09:34.367Z,43.67
2018-07-16T07:12:05.435Z,42.80
2018-07-16T07:14:36.561Z,42.21
2018-07-16T07:17:08.116Z,42.14
2018-07-16T07:19:39.276Z,41.69
2018-07-16T07:22:10.961Z,42.78
2018-07-16T07:24:41.851Z,42.64
2018-07-16T07:27:13.782Z,43.11
2018-07-16T07:29:45.136Z,42.70
2018-07-16T07:32:16.360Z,42.91
2018-07-16T07:34:47.347Z,42.66
2018-07-16T07:37:18.314Z,43.00
2018-07-16T07:39:49.712Z,41.83
2018-07-16T07:42:20.854Z,43.57
2018-07-16T07:44:52.276Z,42.39
2018-07-16T07:47:23.665Z,43.44
2018-07-16T07:49:57.931Z,43.33
2018-07-16T07:52:29.139Z,42.28
2018-07-16T07:55:03.379Z,39.55
2018-07-16T07:57:34.280Z,39.27
2018-07-16T08:00:07.455Z,37.71
2018-07-16T08:02:39.583Z,38.51
2018-07-16T08:05:10.661Z,39.15
2018-07-16T08:07:41.824Z,36.32
2018-07-16T08:10:13.446Z,35.47
2018-07-16T08:12:48.250Z,34.83
2018-07-16T08:15:19.841Z,33.84
2018-07-16T08:17:51.670Z,32.63
2018-07-16T08:20:22.438Z,32.11
2018-07-16T08:22:53.500Z,31.51
2018-07-16T08:25:24.686Z,31.45
2018-07-16T08:27:56.453Z,30.90
2018-07-16T08:30:28.323Z,30.65
2018-07-16T08:33:00.246Z,30.29
2018-07-16T08:35:31.505Z,30.18
2018-07-16T08:38:02.504Z,29.38
2018-07-16T08:40:33.779Z,29.13
2018-07-16T08:43:04.670Z,29.49
2018-07-16T08:45:35.673Z,29.55
2018-07-16T08:48:07.225Z,29.61
2018-07-16T08:50:37.994Z,29.70
2018-07-16T08:53:08.937Z,29.93
2018-07-16T08:55:40.054Z,29.35
2018-07-16T08:58:11.297Z,29.15
2018-07-16T09:00:43.246Z,29.13
2018-07-16T09:03:15.482Z,29.16
2018-07-16T09:05:51.946Z,29.12
2018-07-16T09:08:22.845Z,29.23
2018-07-16T09:10:54.116Z,29.23
2018-07-16T09:13:25.300Z,29.63
2018-07-16T09:15:56.314Z,29.73
2018-07-16T09:18:27.130Z,29.78
2018-07-16T09:20:58.236Z,29.86
2018-07-16T09:23:30.557Z,30.04
2018-07-16T09:26:01.642Z,29.96
2018-07-16T09:28:33.508Z,30.24
2018-07-16T09:31:04.567Z,29.76
2018-07-16T09:33:36.125Z,29.76
2018-07-16T09:36:07.222Z,30.09
2018-07-16T09:38:38.658Z,29.37
2018-07-16T09:41:09.593Z,29.27
2018-07-16T09:43:40.900Z,29.33
2018-07-16T09:46:11.912Z,29.78
2018-07-16T09:48:42.840Z,29.78
2018-07-16T09:51:13.922Z,29.46
2018-07-16T09:53:45.541Z,29.52
2018-07-16T09:56:17.364Z,29.87
2018-07-16T09:58:48.504Z,30.18
2018-07-16T10:01:24.310Z,30.42
2018-07-16T10:03:55.290Z,30.32
2018-07-16T10:06:26.176Z,30.45
2018-07-16T10:08:58.681Z,30.40
2018-07-16T10:11:29.815Z,29.95
2018-07-16T10:14:00.862Z,29.72
2018-07-16T10:16:32.313Z,29.65
2018-07-16T10:19:03.384Z,29.63
2018-07-16T10:21:34.562Z,29.91
2018-07-16T10:24:05.663Z,30.21
2018-07-16T10:26:51.873Z,30.46
2018-07-16T10:29:28.991Z,30.55
2018-07-16T10:32:00.254Z,30.06
2018-07-16T10:34:31.285Z,29.99
2018-07-16T10:37:02.318Z,29.76
2018-07-16T10:39:33.121Z,30.04
2018-07-16T10:42:05.403Z,29.90
2018-07-16T10:44:36.497Z,30.04
2018-07-16T10:47:07.335Z,29.91
2018-07-16T10:49:39.673Z,29.90
2018-07-16T10:52:11.146Z,30.27
2018-07-16T10:54:42.961Z,30.65
2018-07-16T10:57:13.966Z,30.63
2018-07-16T10:59:45.638Z,30.86
2018-07-16T11:02:16.856Z,30.73
2018-07-16T11:04:47.877Z,30.55
2018-07-16T11:07:19.668Z,30.45
2018-07-16T11:09:51.050Z,30.59
2018-07-16T11:12:22.157Z,30.44
2018-07-16T11:14:53.020Z,30.26
2018-07-16T11:17:24.911Z,30.08
2018-07-16T11:19:55.850Z,30.28
2018-07-16T11:22:26.636Z,30.32
2018-07-16T11:24:58.461Z,30.13
2018-07-16T11:27:29.549Z,29.88
2018-07-16T11:30:01.375Z,29.90
2018-07-16T11:32:33.340Z,29.76
2018-07-16T11:35:05.635Z,29.82
2018-07-16T11:37:38.185Z,29.94
2018-07-16T11:40:09.000Z,30.25
2018-07-16T11:42:40.082Z,30.48
2018-07-16T11:45:11.280Z,30.44
2018-07-16T11:47:42.271Z,30.46
2018-07-16T11:50:14.399Z,30.50
2018-07-16T11:52:45.265Z,30.48
2018-07-16T11:55:16.269Z,30.46
2018-07-16T11:57:47.435Z,30.33
2018-07-16T12:00:19.560Z,30.44
2018-07-16T12:02:50.603Z,30.53
2018-07-16T12:05:22.757Z,30.67
2018-07-16T12:07:53.845Z,30.62
2018-07-16T12:10:27.037Z,30.54
2018-07-16T12:12:59.605Z,30.44
2018-07-16T12:15:32.231Z,30.35
2018-07-16T12:18:03.010Z,30.18
2018-07-16T12:20:35.455Z,30.10
2018-07-16T12:23:07.180Z,29.96
2018-07-16T12:25:39.307Z,29.81
2018-07-16T12:28:10.362Z,29.72
2018-07-16T12:30:41.329Z,29.72
2018-07-16T12:33:12.134Z,29.83
2018-07-16T12:35:43.863Z,30.14
2018-07-16T12:38:14.832Z,30.22
2018-07-16T12:40:45.982Z,30.29
2018-07-16T12:43:16.824Z,30.20
2018-07-16T12:45:47.808Z,30.05
2018-07-16T12:48:18.894Z,29.94
2018-07-16T12:50:49.928Z,30.05
2018-07-16T12:53:20.872Z,30.04
2018-07-16T12:55:51.820Z,29.91
2018-07-16T12:58:22.670Z,29.86
2018-07-16T13:00:54.313Z,29.76
2018-07-16T13:03:26.417Z,29.79
2018-07-16T13:05:58.240Z,29.86
2018-07-16T13:08:28.932Z,29.96
2018-07-16T13:11:01.637Z,29.87
2018-07-16T13:13:32.542Z,29.85
2018-07-16T13:16:03.251Z,29.64
2018-07-16T13:18:34.487Z,29.94
2018-07-16T13:21:06.924Z,29.81
2018-07-16T13:23:37.926Z,29.61
2018-07-16T13:26:09.009Z,29.42
2018-07-16T13:28:39.799Z,29.51
2018-07-16T13:31:11.234Z,29.71
2018-07-16T13:33:42.526Z,29.86
2018-07-16T13:36:13.520Z,29.69
2018-07-16T13:38:44.471Z,29.65
2018-07-16T13:41:16.314Z,29.56
2018-07-16T13:43:47.403Z,29.49
2018-07-16T13:46:18.780Z,29.45
2018-07-16T13:48:49.598Z,29.52
2018-07-16T13:51:20.565Z,29.53
2018-07-16T13:53:51.355Z,29.85
2018-07-16T13:56:22.303Z,29.82
2018-07-16T13:58:54.102Z,29.97
2018-07-16T14:01:26.167Z,29.89
2018-07-16T14:03:57.370Z,29.90
2018-07-16T14:06:29.095Z,30.06
2018-07-16T14:09:00.236Z,29.96
2018-07-16T14:11:34.166Z,29.86
2018-07-16T14:14:05.474Z,29.97
2018-07-16T14:16:37.532Z,29.93
2018-07-16T14:19:08.612Z,29.86
2018-07-16T14:21:39.727Z,29.90
2018-07-16T14:24:10.732Z,29.84
2018-07-16T14:26:42.219Z,29.77
2018-07-16T14:29:13.317Z,29.93
2018-07-16T14:31:44.785Z,29.98
2018-07-16T14:34:16.017Z,30.05
2018-07-16T14:36:48.143Z,30.10
2018-07-16T14:39:19.376Z,30.12
2018-07-16T14:41:50.308Z,30.26
2018-07-16T14:44:21.301Z,30.41
2018-07-16T14:46:52.428Z,30.33
2018-07-16T14:49:26.699Z,30.54
2018-07-16T14:51:57.647Z,30.66
2018-07-16T14:54:28.722Z,30.74
2018-07-16T14:56:59.871Z,30.55
2018-07-16T14:59:30.906Z,30.51
2018-07-16T15:02:02.256Z,30.32
2018-07-16T15:04:33.087Z,30.15
2018-07-16T15:07:04.832Z,30.12
2018-07-16T15:09:36.385Z,30.18
2018-07-16T15:12:07.627Z,30.10
2018-07-16T15:14:38.556Z,30.12
2018-07-16T15:17:09.591Z,30.08
2018-07-16T15:19:40.392Z,29.96
2018-07-16T15:22:11.500Z,30.04
2018-07-16T15:24:43.522Z,30.01
2018-07-16T15:27:14.874Z,29.97
2018-07-16T15:29:45.988Z,30.01
2018-07-16T15:32:16.903Z,30.01
2018-07-16T15:34:47.792Z,30.09
2018-07-16T15:37:20.368Z,29.97
2018-07-16T15:39:51.524Z,29.95
2018-07-16T15:42:22.675Z,29.99
2018-07-16T15:44:55.038Z,30.01
2018-07-16T15:47:26.090Z,30.06
2018-07-16T15:49:57.241Z,30.05
2018-07-16T15:52:28.515Z,29.98
2018-07-16T15:55:01.101Z,30.03
2018-07-16T15:57:32.143Z,30.04
2018-07-16T16:00:03.696Z,29.98
2018-07-16T16:02:36.763Z,29.86
2018-07-16T16:05:08.219Z,29.72
2018-07-16T16:07:40.075Z,29.74
2018-07-16T16:10:11.516Z,29.68
2018-07-16T16:12:43.897Z,29.59
2018-07-16T16:15:18.930Z,29.53
2018-07-16T16:17:50.239Z,29.40
2018-07-16T16:20:22.605Z,29.28
2018-07-16T16:22:54.437Z,29.26
2018-07-16T16:25:26.493Z,29.29
2018-07-16T16:27:58.937Z,29.15
2018-07-16T16:30:32.008Z,29.14
2018-07-16T16:33:04.144Z,29.10
2018-07-16T16:35:35.676Z,29.01
2018-07-16T16:38:07.670Z,29.09
2018-07-16T16:40:42.100Z,29.02
2018-07-16T16:43:13.895Z,28.84
2018-07-16T16:45:47.061Z,28.81
2018-07-16T16:48:19.027Z,28.84
2018-07-16T16:50:50.768Z,28.84
2018-07-16T16:53:21.978Z,28.86
2018-07-16T16:55:56.819Z,28.81
2018-07-16T16:58:31.179Z,28.83
2018-07-16T17:01:02.557Z,28.82
2018-07-16T17:03:34.926Z,28.76
2018-07-16T17:06:07.404Z,28.75
2018-07-16T17:08:41.653Z,28.70
2018-07-16T17:11:13.590Z,28.63
2018-07-16T17:13:44.804Z,28.57
2018-07-16T17:16:15.893Z,28.50
2018-07-16T17:18:47.354Z,28.37
2018-07-16T17:21:18.809Z,28.25
2018-07-16T17:23:50.805Z,28.23
2018-07-16T17:26:22.839Z,27.91
2018-07-16T17:28:54.649Z,27.86
2018-07-16T17:31:27.023Z,27.81
2018-07-16T17:33:58.169Z,27.68
2018-07-16T17:36:29.658Z,27.53
2018-07-16T17:39:15.048Z,27.46
2018-07-16T17:41:48.067Z,27.41
2018-07-16T17:44:20.130Z,27.27
2018-07-16T17:46:51.560Z,27.19
2018-07-16T17:49:23.730Z,26.99
2018-07-16T17:51:57.363Z,26.92
2018-07-16T17:54:28.609Z,26.96
2018-07-16T17:57:00.186Z,26.87
2018-07-16T17:59:39.491Z,26.77
2018-07-16T18:02:13.068Z,26.73
2018-07-16T18:04:45.494Z,26.43
2018-07-16T18:07:24.543Z,26.40
2018-07-16T18:09:57.288Z,26.38
2018-07-16T18:12:28.932Z,26.39
2018-07-16T18:15:03.753Z,26.36
2018-07-16T18:17:35.494Z,26.22
2018-07-16T18:20:08.005Z,26.20
2018-07-16T18:22:42.489Z,26.20
2018-07-16T18:25:17.218Z,26.18
2018-07-16T18:27:52.443Z,26.10
2018-07-16T18:30:23.306Z,26.09
2018-07-16T18:32:58.887Z,26.02
2018-07-16T18:35:34.820Z,25.94
2018-07-16T18:38:09.772Z,25.87
2018-07-16T18:40:42.467Z,25.78
2018-07-16T18:43:14.579Z,25.74
2018-07-16T18:45:48.928Z,25.84
2018-07-16T18:48:22.284Z,25.75
2018-07-16T18:53:37.490Z,25.77
2018-07-16T18:58:46.809Z,25.75
2018-07-16T19:01:21.876Z,25.75
2018-07-16T19:03:56.279Z,25.61
2018-07-16T19:06:38.280Z,25.60
2018-07-16T19:09:11.359Z,25.47
2018-07-16T19:11:43.550Z,25.55
2018-07-16T19:14:16.019Z,25.53
2018-07-16T19:16:47.830Z,25.52
2018-07-16T19:19:19.344Z,25.49
2018-07-16T19:21:50.459Z,25.50
2018-07-16T19:24:23.221Z,25.43
2018-07-16T19:26:56.930Z,25.47
2018-07-16T19:29:33.196Z,25.43
2018-07-16T19:32:05.777Z,25.44
2018-07-16T19:34:38.647Z,25.42
2018-07-16T19:37:11.464Z,25.33
2018-07-16T19:39:43.752Z,25.16
2018-07-16T19:42:16.412Z,25.19
2018-07-16T19:44:50.997Z,25.20
2018-07-16T19:47:22.907Z,25.28
2018-07-16T19:49:54.177Z,25.24
2018-07-16T19:52:25.520Z,25.05
2018-07-16T19:54:57.530Z,24.81
2018-07-16T19:57:28.602Z,24.76
2018-07-16T20:00:00.742Z,24.65
2018-07-16T20:02:34.754Z,24.76
2018-07-16T20:08:15.125Z,24.98
2018-07-16T20:10:46.349Z,24.94
2018-07-16T20:13:17.721Z,25.00
2018-07-16T20:17:25.226Z,25.02
2018-07-16T20:19:57.787Z,25.04
2018-07-16T20:22:29.275Z,25.10
2018-07-16T20:25:00.382Z,25.00
2018-07-16T20:27:32.363Z,24.71
2018-07-16T20:30:07.100Z,24.55
2018-07-16T20:32:39.440Z,24.49
2018-07-16T20:35:11.167Z,24.49
2018-07-16T20:37:47.199Z,24.39
2018-07-16T20:40:23.220Z,24.43
2018-07-16T20:42:58.854Z,24.39
2018-07-16T20:45:34.507Z,24.43
2018-07-16T20:48:09.141Z,24.50
2018-07-16T20:50:40.482Z,24.52
2018-07-16T20:53:13.290Z,24.34
2018-07-16T20:55:48.568Z,23.63
2018-07-16T20:58:24.565Z,24.21
2018-07-16T21:01:01.040Z,24.27
2018-07-16T21:03:33.176Z,24.24
2018-07-16T21:06:07.371Z,24.26
2018-07-16T21:08:38.805Z,24.31
2018-07-16T21:11:10.416Z,24.35
2018-07-16T21:13:41.862Z,24.22
2018-07-16T21:16:13.987Z,24.27
2018-07-16T21:18:47.742Z,24.25
2018-07-16T21:21:18.961Z,24.26
2018-07-16T21:23:50.356Z,24.23
2018-07-16T21:26:21.336Z,24.15
2018-07-16T21:28:53.136Z,24.00
2018-07-16T21:31:24.102Z,24.02
2018-07-16T21:33:55.418Z,23.95
2018-07-16T21:36:26.404Z,23.89
2018-07-16T21:38:58.588Z,23.75
2018-07-16T21:41:31.389Z,23.71
2018-07-16T21:44:02.460Z,23.74
2018-07-16T21:46:33.499Z,23.82
2018-07-16T21:49:04.476Z,23.79
2018-07-16T21:51:35.846Z,23.74
2018-07-16T21:54:07.130Z,23.69
2018-07-16T21:56:38.384Z,23.79
2018-07-16T21:59:09.635Z,23.89
2018-07-16T22:01:40.824Z,23.97
2018-07-16T22:04:12.908Z,24.01
2018-07-16T22:06:44.160Z,24.01
2018-07-16T22:09:15.471Z,24.00
2018-07-16T22:11:50.648Z,24.04
2018-07-16T22:14:21.892Z,24.01
2018-07-16T22:16:53.521Z,23.96
2018-07-16T22:19:24.566Z,24.01
2018-07-16T22:21:56.691Z,23.98
2018-07-16T22:24:27.611Z,24.09
2018-07-16T22:26:58.870Z,24.26
2018-07-16T22:29:29.998Z,24.28
2018-07-16T22:32:00.975Z,24.32
2018-07-16T22:34:32.788Z,24.40
2018-07-16T22:37:03.687Z,24.46
2018-07-16T22:39:35.710Z,24.55
2018-07-16T22:42:07.525Z,24.54
2018-07-16T22:44:38.418Z,24.60
2018-07-16T22:47:10.285Z,24.64
2018-07-16T22:49:41.419Z,24.67
2018-07-16T22:52:12.767Z,24.64
2018-07-16T22:54:44.094Z,24.63
2018-07-16T22:57:15.547Z,24.69
2018-07-16T22:59:47.253Z,24.69
2018-07-16T23:02:18.696Z,24.62
2018-07-16T23:04:49.922Z,24.53
2018-07-16T23:07:21.044Z,24.76
2018-07-16T23:09:52.114Z,24.70
2018-07-16T23:12:23.337Z,24.61
2018-07-16T23:14:54.618Z,24.62
2018-07-16T23:17:26.445Z,24.58
2018-07-16T23:19:57.617Z,24.56
2018-07-16T23:22:28.715Z,24.53
2018-07-16T23:25:00.491Z,24.48
2018-07-16T23:27:32.565Z,24.50
2018-07-16T23:30:04.461Z,24.51
2018-07-16T23:32:36.228Z,24.46
2018-07-16T23:35:07.357Z,24.43
2018-07-16T23:37:39.671Z,24.44
2018-07-16T23:40:11.357Z,24.36
2018-07-16T23:42:43.658Z,24.25
2018-07-16T23:45:16.550Z,24.35
2018-07-16T23:47:47.435Z,24.43
2018-07-16T23:50:18.749Z,24.36
2018-07-16T23:52:50.593Z,24.52
2018-07-16T23:55:21.920Z,24.47
